• Join FlightAware (Why Join?)
  • Login
  • US Flag 
07:44PM EDT


 

Airport Tracker/Info


-or-


 

Live Flight TrackerFlight Track Log ✈ AAY860 ✈ 13-Jan-2014 ✈ KPIE - KLEX

Flight Track Log - Related Links

Times and Time Zones

All times are in EST time to prevent confusion due to time zone crossing. See the AAY860 flight status page for this flight to view local times or setup timezone preferences in your user account.

Time Position Orientation Groundspeed Altitude Reporting Facility
EST Latitude Longitude Course Direction KTS MPH feet Rate Location/Type
07:26AM 27.9333 -82.6833 North 171 197 600  Level Tampa TRACON
07:27AM 27.9833 -82.6833 360° North 217 250 1,800 1,860 Climbing Tampa TRACON
07:28AM 28.0500 -82.6500 24° Northeast 291 335 4,200 2,640 Climbing Tampa TRACON
07:29AM 28.1333 -82.6333 10° North 285 328 7,400 2,220 Climbing Tampa TRACON
07:31AM 28.2978 -82.5981 11° North 308 354 11,300 1,800 Climbing Jacksonville Center
07:32AM 28.5953 -82.8046 North  Level Estimated
07:32AM 28.4019 -82.5953 North 340 391 13,000  Level Jacksonville Center
07:33AM 28.5169 -82.5997 358° North 379 436 15,300 2,280 Climbing Jacksonville Center
07:34AM 28.6317 -82.6086 356° North 406 467 17,600 2,100 Climbing Jacksonville Center
07:35AM 28.7631 -82.6131 358° North 417 480 19,600 1,620 Climbing Jacksonville Center
07:36AM 28.8864 -82.6175 358° North 428 493 20,900 1,500 Climbing Jacksonville Center
07:37AM 29.0117 -82.6242 357° North 441 507 22,700 1,500 Climbing Jacksonville Center
07:38AM 29.1431 -82.6286 358° North 453 521 24,000 1,260 Climbing Jacksonville Center
07:39AM 29.2767 -82.6331 358° North 463 533 25,300 1,680 Climbing Jacksonville Center
07:40AM 29.4103 -82.6375 358° North 468 539 27,400 1,560 Climbing Jacksonville Center
07:41AM 29.5439 -82.6419 358° North 480 552 28,500 1,200 Climbing Jacksonville Center
07:42AM 29.6650 -82.6536 355° North 480 552 29,900 1,560 Climbing Jacksonville Center
07:43AM 29.7967 -82.6581 358° North 475 547 31,700 1,320 Climbing Jacksonville Center
07:44AM 29.9197 -82.6650 357° North 457 526 32,600 600 Climbing Jacksonville Center
07:45AM 30.0575 -82.6644 360° North 452 520 33,000 180 Climbing Jacksonville Center
07:46AM 30.1828 -82.6714 357° North 447 514 33,000  Level Jacksonville Center
07:47AM 30.3103 -82.6761 358° North 447 514 33,000  Level Jacksonville Center
07:48AM 30.4375 -82.6806 358° North 447 514 33,000  Level Jacksonville Center
07:49AM 30.5669 -82.6803 360° North 452 520 33,000  Level Jacksonville Center
07:50AM 30.6944 -82.6558 North 458 527 33,000  Level Jacksonville Center
07:51AM 30.8217 -82.6336 North 463 533 33,000  Level Jacksonville Center
07:52AM 30.9511 -82.6117 North 463 533 33,000  Level Jacksonville Center
07:53AM 31.0825 -82.5894 North 463 533 33,000  Level Jacksonville Center
07:54AM 31.2097 -82.5672 North 468 539 33,000  Level Jacksonville Center
07:55AM 31.3372 -82.5472 North 463 533 33,000  Level Jacksonville Center
07:56AM 31.4539 -82.5225 10° North 463 533 33,000  Level Jacksonville Center
07:57AM 31.5833 -82.5219 360° North 464 534 33,000  Level Jacksonville Center
07:58AM 31.7006 -82.5606 344° North 446 513 33,000  Level Jacksonville Center
08:00AM 31.9664 -82.6533 344° North 451 519 33,000  Level Atlanta Center
08:01AM 32.0858 -82.6931 344° North 451 519 33,000  Level Atlanta Center
08:02AM 32.2050 -82.7331 344° North 446 513 33,000  Level Atlanta Center
08:03AM 32.3244 -82.7706 345° North 446 513 33,000 120 Level Atlanta Center
08:04AM 32.4461 -82.8131 344° North 441 507 33,300 480 Climbing Atlanta Center
08:05AM 32.5486 -82.8461 345° North 435 501 34,000 300 Climbing Atlanta Center
08:06AM 32.6636 -82.8842 344° North 430 495 34,000  Level Atlanta Center
08:07AM 32.7811 -82.9244 344° North 430 495 34,000  Level Atlanta Center
08:08AM 32.9003 -82.9650 344° North 435 501 34,000  Level Atlanta Center
08:09AM 33.0197 -83.0058 344° North 435 501 34,000  Level Atlanta Center
08:10AM 33.1328 -83.0517 341° North 435 501 34,000  Level Atlanta Center
08:11AM 33.2542 -83.0875 346° North 445 512 34,000  Level Atlanta Center
08:12AM 33.3733 -83.1308 343° North 440 506 34,000  Level Atlanta Center
08:13AM 33.4947 -83.1694 345° North 434 499 34,000  Level Atlanta Center
08:14AM 33.6139 -83.2106 344° North 440 506 34,000  Level Atlanta Center
08:15AM 33.7436 -83.2544 344° North 435 501 34,000  Level Atlanta Center
08:16AM 33.8631 -83.2958 344° North 440 506 34,000  Level Atlanta Center
08:17AM 33.9842 -83.3347 345° North 440 506 34,000  Level Atlanta Center
08:18AM 34.1056 -83.3689 347° North 440 506 34,000  Level Atlanta Center
08:19AM 34.2267 -83.4006 348° North 440 506 34,000  Level Atlanta Center
08:20AM 34.3481 -83.4375 346° North 440 506 34,000  Level Atlanta Center
08:21AM 34.4692 -83.4719 347° North 445 512 34,000  Level Atlanta Center
08:22AM 34.5883 -83.5039 348° North 440 506 34,000  Level Atlanta Center
08:23AM 34.6969 -83.5411 344° North 440 506 34,000  Level Atlanta Center
08:24AM 34.8306 -83.5731 349° North 440 506 34,100  Climbing Atlanta Center
08:25AM 34.9517 -83.6156 344° North 445 512 34,000 -60 Descending Atlanta Center
08:26AM 35.0689 -83.6481 347° North 445 512 34,000  Level Atlanta Center
08:27AM 35.1900 -83.6856 346° North 439 505 34,000  Level Atlanta Center
08:28AM 35.3089 -83.7181 347° North 434 499 34,000  Level Atlanta Center
08:29AM 35.4300 -83.7533 347° North 434 499 34,100  Climbing Atlanta Center
08:30AM 35.5492 -83.7911 346° North 434 499 34,000 -60 Descending Atlanta Center
08:31AM 35.6700 -83.8239 348° North 434 499 34,000 -60 Level Atlanta Center
08:32AM 35.7892 -83.8594 346° North 434 499 33,900 -900 Descending Atlanta Center
08:33AM 35.9100 -83.8978 346° North 434 499 32,300 -1,620 Descending Atlanta Center
08:34AM 36.0353 -83.9308 348° North 434 499 30,700 -1,680 Descending Atlanta Center
08:35AM 36.1625 -83.9642 348° North 446 513 29,000 -1,680 Descending Atlanta Center
08:36AM 36.2403 -83.9850 348° North 472 543 28,000 -1,680 Descending Indianapolis Center
08:37AM 36.3683 -84.0208 347° North 474 545 26,300 -1,560 Descending Indianapolis Center
08:38AM 36.4917 -84.0561 347° North 462 532 24,800 -1,140 Descending Indianapolis Center
08:39AM 36.6231 -84.0917 348° North 450 518 24,000 -420 Descending Indianapolis Center
08:40AM 36.7450 -84.1264 347° North 448 516 24,000 -720 Level Indianapolis Center
08:41AM 36.8683 -84.1611 347° North 451 519 22,600 -1,680 Descending Indianapolis Center
08:42AM 36.9922 -84.1950 348° North 452 520 20,600 -1,800 Descending Indianapolis Center
08:43AM 37.1131 -84.2292 347° North 446 513 19,000 -1,800 Descending Indianapolis Center
08:44AM 37.2272 -84.2614 347° North 424 488 16,900 -2,160 Descending Indianapolis Center
08:45AM 37.3567 -84.2981 347° North 408 470 14,600 -2,100 Descending Indianapolis Center
08:46AM 37.4622 -84.3281 347° North 394 453 12,600 -1,980 Descending Indianapolis Center
08:47AM 37.5653 -84.3575 347° North 382 440 10,600 -1,440 Descending Indianapolis Center
08:48AM 37.6597 -84.3833 348° North 357 411 9,700 -1,080 Descending Indianapolis Center
08:49AM 37.7442 -84.4089 347° North 324 373 8,400 -1,500 Descending Indianapolis Center
08:50AM 37.8250 -84.4306 348° North 303 349 6,700 -1,680 Descending Indianapolis Center
08:51AM 37.9019 -84.4514 348° North 289 333 5,000 -1,680 Descending Indianapolis Center
08:52AM 37.9906 -84.4539 359° North 277 319 3,300 -960 Descending Indianapolis Center
08:53AM 38.0594 -84.4689 350° North 267 307 3,100 -420 Descending Indianapolis Center
08:54AM 38.0958 -84.5133 316° Northwest 221 254 2,500 -480 Descending Indianapolis Center
08:56AM 38.0867 -84.5478 251° West 158 182 2,200 -240 Descending Indianapolis Center
08:57AM 38.0681 -84.5872 239° Southwest 155 178 2,100 -120 Descending Indianapolis Center
08:59AM 38.0333 -84.6000 310° West  Level FlightAware Approximate